Terminal Aerodrome Forecast
Issued by NWS Sioux Falls, SD

Home | Current Version | Previous Version | Graphics & Text | Print | Product List | Glossary On
Versions: 1 2 3 4 5 6 7 8 9 10 11 12 13 14 15 16 17 18
000
FTUS43 KFSD 211700
TAFFSD
TAF
KFSD 211720Z 2118/2218 33005KT P6SM SCT035 SCT100
     FM220600 VRB04KT P6SM SCT200
     FM221000 VRB03KT 5SM BR SCT200
     FM221300 13005KT P6SM SCT200=

USA.gov is the U.S. government's official web portal to all federal, state and local government web resources and services.